sensor_id;sensor_type;location;lat;lon;timestamp;temperature;humidity
19552;DHT22;9921;47.186;9.778;2023-07-20T00:00:10;21.50;99.90
19552;DHT22;9921;47.186;9.778;2023-07-20T00:02:39;21.50;99.90
19552;DHT22;9921;47.186;9.778;2023-07-20T00:05:06;21.50;99.90
19552;DHT22;9921;47.186;9.778;2023-07-20T00:07:33;21.40;99.90
19552;DHT22;9921;47.186;9.778;2023-07-20T00:10:00;21.20;99.90
19552;DHT22;9921;47.186;9.778;2023-07-20T00:12:27;20.90;99.90
19552;DHT22;9921;47.186;9.778;2023-07-20T00:14:54;20.90;99.90
19552;DHT22;9921;47.186;9.778;2023-07-20T00:17:22;20.90;99.90
19552;DHT22;9921;47.186;9.778;2023-07-20T00:19:49;20.50;99.90
19552;DHT22;9921;47.186;9.778;2023-07-20T00:22:16;20.50;99.90
19552;DHT22;9921;47.186;9.778;2023-07-20T00:24:42;20.60;99.90
19552;DHT22;9921;47.186;9.778;2023-07-20T00:27:09;20.70;99.90
19552;DHT22;9921;47.186;9.778;2023-07-20T00:29:36;20.80;99.90
19552;DHT22;9921;47.186;9.778;2023-07-20T00:32:04;20.70;99.90
19552;DHT22;9921;47.186;9.778;2023-07-20T00:34:33;20.80;99.90
19552;DHT22;9921;47.186;9.778;2023-07-20T00:36:59;20.80;99.90
19552;DHT22;9921;47.186;9.778;2023-07-20T00:39:26;20.70;99.90
19552;DHT22;9921;47.186;9.778;2023-07-20T00:41:53;20.80;99.90
19552;DHT22;9921;47.186;9.778;2023-07-20T00:44:20;20.90;99.90
19552;DHT22;9921;47.186;9.778;2023-07-20T00:46:47;21.00;99.90
19552;DHT22;9921;47.186;9.778;2023-07-20T00:49:14;21.10;99.90
19552;DHT22;9921;47.186;9.778;2023-07-20T00:51:43;20.90;99.90
19552;DHT22;9921;47.186;9.778;2023-07-20T00:54:10;20.60;99.90
19552;DHT22;9921;47.186;9.778;2023-07-20T00:56:37;20.50;99.90
19552;DHT22;9921;47.186;9.778;2023-07-20T00:59:04;20.50;99.90
19552;DHT22;9921;47.186;9.778;2023-07-20T01:01:31;20.60;99.90
19552;DHT22;9921;47.186;9.778;2023-07-20T01:03:59;20.60;99.90
19552;DHT22;9921;47.186;9.778;2023-07-20T01:06:29;20.60;99.90
19552;DHT22;9921;47.186;9.778;2023-07-20T01:09:08;20.60;99.90
19552;DHT22;9921;47.186;9.778;2023-07-20T01:11:38;20.60;99.90
19552;DHT22;9921;47.186;9.778;2023-07-20T01:14:08;20.70;99.90
19552;DHT22;9921;47.186;9.778;2023-07-20T01:16:35;20.80;99.90
19552;DHT22;9921;47.186;9.778;2023-07-20T01:19:02;20.80;99.90
19552;DHT22;9921;47.186;9.778;2023-07-20T01:21:34;20.90;99.90
19552;DHT22;9921;47.186;9.778;2023-07-20T01:27:36;20.90;99.90
19552;DHT22;9921;47.186;9.778;2023-07-20T01:30:16;20.90;99.90
19552;DHT22;9921;47.186;9.778;2023-07-20T01:32:47;20.70;99.90
19552;DHT22;9921;47.186;9.778;2023-07-20T01:35:16;20.60;99.90
19552;DHT22;9921;47.186;9.778;2023-07-20T01:37:43;20.60;99.90
19552;DHT22;9921;47.186;9.778;2023-07-20T01:40:14;20.40;99.90
19552;DHT22;9921;47.186;9.778;2023-07-20T01:42:44;20.40;99.90
19552;DHT22;9921;47.186;9.778;2023-07-20T01:45:12;20.60;99.90
19552;DHT22;9921;47.186;9.778;2023-07-20T01:47:39;20.60;99.90
19552;DHT22;9921;47.186;9.778;2023-07-20T01:50:08;20.70;99.90
19552;DHT22;9921;47.186;9.778;2023-07-20T01:52:35;20.70;99.90
19552;DHT22;9921;47.186;9.778;2023-07-20T01:55:02;20.80;99.90
19552;DHT22;9921;47.186;9.778;2023-07-20T01:57:29;20.80;99.90
19552;DHT22;9921;47.186;9.778;2023-07-20T01:59:56;20.80;99.90
19552;DHT22;9921;47.186;9.778;2023-07-20T02:02:26;20.80;99.90
19552;DHT22;9921;47.186;9.778;2023-07-20T02:04:53;20.60;99.90
19552;DHT22;9921;47.186;9.778;2023-07-20T02:07:21;20.70;99.90
19552;DHT22;9921;47.186;9.778;2023-07-20T02:09:48;20.70;99.90
19552;DHT22;9921;47.186;9.778;2023-07-20T02:12:15;20.70;99.90
19552;DHT22;9921;47.186;9.778;2023-07-20T02:14:42;20.70;99.90
19552;DHT22;9921;47.186;9.778;2023-07-20T02:17:09;20.80;99.90
19552;DHT22;9921;47.186;9.778;2023-07-20T02:19:37;20.80;99.90
19552;DHT22;9921;47.186;9.778;2023-07-20T02:22:04;20.90;99.90
19552;DHT22;9921;47.186;9.778;2023-07-20T02:24:33;20.90;99.90
19552;DHT22;9921;47.186;9.778;2023-07-20T02:27:00;20.70;99.90
19552;DHT22;9921;47.186;9.778;2023-07-20T02:29:27;20.40;99.90
19552;DHT22;9921;47.186;9.778;2023-07-20T02:31:54;20.10;99.90
19552;DHT22;9921;47.186;9.778;2023-07-20T02:34:21;19.90;99.90
19552;DHT22;9921;47.186;9.778;2023-07-20T02:36:47;19.80;99.90
19552;DHT22;9921;47.186;9.778;2023-07-20T02:39:14;19.90;99.90
19552;DHT22;9921;47.186;9.778;2023-07-20T02:41:43;20.10;99.90
19552;DHT22;9921;47.186;9.778;2023-07-20T02:44:09;20.20;99.90
19552;DHT22;9921;47.186;9.778;2023-07-20T02:46:36;20.40;99.90
19552;DHT22;9921;47.186;9.778;2023-07-20T02:49:03;20.40;99.90
19552;DHT22;9921;47.186;9.778;2023-07-20T02:51:31;20.50;99.90
19552;DHT22;9921;47.186;9.778;2023-07-20T02:54:00;20.50;99.90
19552;DHT22;9921;47.186;9.778;2023-07-20T02:56:27;20.50;99.90
19552;DHT22;9921;47.186;9.778;2023-07-20T02:58:55;20.60;99.90
19552;DHT22;9921;47.186;9.778;2023-07-20T03:01:22;20.50;99.90
19552;DHT22;9921;47.186;9.778;2023-07-20T03:03:49;20.40;99.90
19552;DHT22;9921;47.186;9.778;2023-07-20T03:06:16;20.20;99.90
19552;DHT22;9921;47.186;9.778;2023-07-20T03:08:43;20.00;99.90
19552;DHT22;9921;47.186;9.778;2023-07-20T03:11:13;20.00;99.90
19552;DHT22;9921;47.186;9.778;2023-07-20T03:13:41;20.10;99.90
19552;DHT22;9921;47.186;9.778;2023-07-20T03:16:09;20.20;99.90
19552;DHT22;9921;47.186;9.778;2023-07-20T03:18:37;20.30;99.90
19552;DHT22;9921;47.186;9.778;2023-07-20T03:21:04;20.30;99.90
19552;DHT22;9921;47.186;9.778;2023-07-20T03:23:31;20.30;99.90
19552;DHT22;9921;47.186;9.778;2023-07-20T03:25:58;20.20;99.90
19552;DHT22;9921;47.186;9.778;2023-07-20T03:28:25;20.10;99.90
19552;DHT22;9921;47.186;9.778;2023-07-20T03:30:53;20.10;99.90
19552;DHT22;9921;47.186;9.778;2023-07-20T03:33:21;20.20;99.90
19552;DHT22;9921;47.186;9.778;2023-07-20T03:35:48;20.20;99.90
19552;DHT22;9921;47.186;9.778;2023-07-20T03:38:15;20.30;99.90
19552;DHT22;9921;47.186;9.778;2023-07-20T03:40:49;20.40;99.90
19552;DHT22;9921;47.186;9.778;2023-07-20T03:43:17;20.50;99.90
19552;DHT22;9921;47.186;9.778;2023-07-20T03:45:44;20.50;99.90
19552;DHT22;9921;47.186;9.778;2023-07-20T03:48:13;20.60;99.90
19552;DHT22;9921;47.186;9.778;2023-07-20T03:50:41;20.60;99.90
19552;DHT22;9921;47.186;9.778;2023-07-20T03:53:08;20.60;99.90
19552;DHT22;9921;47.186;9.778;2023-07-20T03:55:35;20.70;99.90
19552;DHT22;9921;47.186;9.778;2023-07-20T03:58:02;20.70;99.90
19552;DHT22;9921;47.186;9.778;2023-07-20T04:00:29;20.60;99.90
19552;DHT22;9921;47.186;9.778;2023-07-20T04:02:56;20.50;99.90
19552;DHT22;9921;47.186;9.778;2023-07-20T04:05:24;20.40;99.90
19552;DHT22;9921;47.186;9.778;2023-07-20T04:07:52;20.10;99.90
19552;DHT22;9921;47.186;9.778;2023-07-20T04:10:19;20.10;99.90
19552;DHT22;9921;47.186;9.778;2023-07-20T04:12:46;20.10;99.90
19552;DHT22;9921;47.186;9.778;2023-07-20T04:15:13;19.90;99.90
19552;DHT22;9921;47.186;9.778;2023-07-20T04:17:40;20.00;99.90
19552;DHT22;9921;47.186;9.778;2023-07-20T04:20:08;20.10;99.90
19552;DHT22;9921;47.186;9.778;2023-07-20T04:22:35;20.20;99.90
19552;DHT22;9921;47.186;9.778;2023-07-20T04:25:04;20.20;99.90
19552;DHT22;9921;47.186;9.778;2023-07-20T04:27:31;20.20;99.90
19552;DHT22;9921;47.186;9.778;2023-07-20T04:29:58;20.20;99.90
19552;DHT22;9921;47.186;9.778;2023-07-20T04:32:26;20.20;99.90
19552;DHT22;9921;47.186;9.778;2023-07-20T04:34:53;20.30;99.90
19552;DHT22;9921;47.186;9.778;2023-07-20T04:37:20;20.40;99.90
19552;DHT22;9921;47.186;9.778;2023-07-20T04:39:47;20.40;99.90
19552;DHT22;9921;47.186;9.778;2023-07-20T04:42:16;20.40;99.90
19552;DHT22;9921;47.186;9.778;2023-07-20T04:44:42;20.50;99.90
19552;DHT22;9921;47.186;9.778;2023-07-20T04:47:09;20.50;99.90
19552;DHT22;9921;47.186;9.778;2023-07-20T04:49:36;20.60;99.90
19552;DHT22;9921;47.186;9.778;2023-07-20T04:52:03;20.50;99.90
19552;DHT22;9921;47.186;9.778;2023-07-20T04:54:30;20.50;99.90
19552;DHT22;9921;47.186;9.778;2023-07-20T04:56:57;20.60;99.90
19552;DHT22;9921;47.186;9.778;2023-07-20T04:59:26;20.70;99.90
19552;DHT22;9921;47.186;9.778;2023-07-20T05:01:53;20.70;99.90
19552;DHT22;9921;47.186;9.778;2023-07-20T05:04:19;20.70;99.90
19552;DHT22;9921;47.186;9.778;2023-07-20T05:06:46;20.70;99.90
19552;DHT22;9921;47.186;9.778;2023-07-20T05:09:13;20.50;99.90
19552;DHT22;9921;47.186;9.778;2023-07-20T05:11:40;20.40;99.90
19552;DHT22;9921;47.186;9.778;2023-07-20T05:14:07;20.30;99.90
19552;DHT22;9921;47.186;9.778;2023-07-20T05:16:35;20.10;99.90
19552;DHT22;9921;47.186;9.778;2023-07-20T05:19:02;20.00;99.90
19552;DHT22;9921;47.186;9.778;2023-07-20T05:21:29;20.00;99.90
19552;DHT22;9921;47.186;9.778;2023-07-20T05:23:56;20.00;99.90
19552;DHT22;9921;47.186;9.778;2023-07-20T05:26:23;20.00;99.90
19552;DHT22;9921;47.186;9.778;2023-07-20T05:28:50;20.20;99.90
19552;DHT22;9921;47.186;9.778;2023-07-20T05:31:17;20.30;99.90
19552;DHT22;9921;47.186;9.778;2023-07-20T05:33:45;20.40;99.90
19552;DHT22;9921;47.186;9.778;2023-07-20T05:36:12;20.50;99.90
19552;DHT22;9921;47.186;9.778;2023-07-20T05:38:38;20.50;99.90
19552;DHT22;9921;47.186;9.778;2023-07-20T05:41:05;20.60;99.90
19552;DHT22;9921;47.186;9.778;2023-07-20T05:43:35;20.60;99.90
19552;DHT22;9921;47.186;9.778;2023-07-20T05:46:02;20.60;99.90
19552;DHT22;9921;47.186;9.778;2023-07-20T05:48:30;20.70;99.90
19552;DHT22;9921;47.186;9.778;2023-07-20T05:50:59;20.60;99.90
19552;DHT22;9921;47.186;9.778;2023-07-20T05:53:26;20.70;99.90
19552;DHT22;9921;47.186;9.778;2023-07-20T05:55:53;20.70;99.90
19552;DHT22;9921;47.186;9.778;2023-07-20T05:58:20;20.70;99.90
19552;DHT22;9921;47.186;9.778;2023-07-20T06:00:48;20.70;99.90
19552;DHT22;9921;47.186;9.778;2023-07-20T06:03:14;20.70;99.90
19552;DHT22;9921;47.186;9.778;2023-07-20T06:05:42;20.80;99.90
19552;DHT22;9921;47.186;9.778;2023-07-20T06:08:10;20.70;99.90
19552;DHT22;9921;47.186;9.778;2023-07-20T06:10:37;20.70;99.90
19552;DHT22;9921;47.186;9.778;2023-07-20T06:13:04;20.80;99.90
19552;DHT22;9921;47.186;9.778;2023-07-20T06:15:32;20.80;99.90
19552;DHT22;9921;47.186;9.778;2023-07-20T06:18:00;20.90;99.90
19552;DHT22;9921;47.186;9.778;2023-07-20T06:20:29;21.00;99.90
19552;DHT22;9921;47.186;9.778;2023-07-20T06:22:56;20.90;99.90
19552;DHT22;9921;47.186;9.778;2023-07-20T06:25:24;20.70;99.90
19552;DHT22;9921;47.186;9.778;2023-07-20T06:27:51;20.60;99.90
19552;DHT22;9921;47.186;9.778;2023-07-20T06:30:19;20.70;99.90
19552;DHT22;9921;47.186;9.778;2023-07-20T06:32:46;20.60;99.90
19552;DHT22;9921;47.186;9.778;2023-07-20T06:35:14;20.70;99.90
19552;DHT22;9921;47.186;9.778;2023-07-20T06:37:41;20.80;99.90
19552;DHT22;9921;47.186;9.778;2023-07-20T06:40:09;20.90;99.90
19552;DHT22;9921;47.186;9.778;2023-07-20T06:42:37;21.00;99.90
19552;DHT22;9921;47.186;9.778;2023-07-20T06:45:05;21.10;99.90
19552;DHT22;9921;47.186;9.778;2023-07-20T06:47:32;21.20;99.90
19552;DHT22;9921;47.186;9.778;2023-07-20T06:49:58;21.20;99.90
19552;DHT22;9921;47.186;9.778;2023-07-20T06:52:25;21.20;99.90
19552;DHT22;9921;47.186;9.778;2023-07-20T06:54:52;21.20;99.90
19552;DHT22;9921;47.186;9.778;2023-07-20T06:57:19;21.30;99.90
19552;DHT22;9921;47.186;9.778;2023-07-20T06:59:47;21.40;99.90
19552;DHT22;9921;47.186;9.778;2023-07-20T07:02:15;21.40;99.90
19552;DHT22;9921;47.186;9.778;2023-07-20T07:04:42;21.40;99.90
19552;DHT22;9921;47.186;9.778;2023-07-20T07:07:09;21.30;99.90
19552;DHT22;9921;47.186;9.778;2023-07-20T07:09:36;21.30;99.90
19552;DHT22;9921;47.186;9.778;2023-07-20T07:12:03;21.40;99.90
19552;DHT22;9921;47.186;9.778;2023-07-20T07:14:30;21.50;99.90
19552;DHT22;9921;47.186;9.778;2023-07-20T07:16:58;21.60;99.90
19552;DHT22;9921;47.186;9.778;2023-07-20T07:19:25;21.60;99.90
19552;DHT22;9921;47.186;9.778;2023-07-20T07:21:52;21.60;99.90
19552;DHT22;9921;47.186;9.778;2023-07-20T07:24:19;21.60;99.90
19552;DHT22;9921;47.186;9.778;2023-07-20T07:26:46;21.70;99.90
19552;DHT22;9921;47.186;9.778;2023-07-20T07:29:13;21.80;99.90
19552;DHT22;9921;47.186;9.778;2023-07-20T07:31:39;21.90;99.90
19552;DHT22;9921;47.186;9.778;2023-07-20T07:34:08;22.00;99.90
19552;DHT22;9921;47.186;9.778;2023-07-20T07:36:35;22.00;99.90
19552;DHT22;9921;47.186;9.778;2023-07-20T07:39:02;22.10;99.90
19552;DHT22;9921;47.186;9.778;2023-07-20T07:41:31;22.10;99.90
19552;DHT22;9921;47.186;9.778;2023-07-20T07:43:58;22.10;99.90
19552;DHT22;9921;47.186;9.778;2023-07-20T07:46:25;22.20;99.90
19552;DHT22;9921;47.186;9.778;2023-07-20T07:48:52;22.30;99.90
19552;DHT22;9921;47.186;9.778;2023-07-20T07:51:20;22.40;99.90
19552;DHT22;9921;47.186;9.778;2023-07-20T07:53:47;22.40;99.90
19552;DHT22;9921;47.186;9.778;2023-07-20T07:56:15;22.40;99.90
19552;DHT22;9921;47.186;9.778;2023-07-20T07:58:43;22.50;99.90
19552;DHT22;9921;47.186;9.778;2023-07-20T08:01:09;22.60;99.90
19552;DHT22;9921;47.186;9.778;2023-07-20T08:03:36;22.60;99.90
19552;DHT22;9921;47.186;9.778;2023-07-20T08:06:03;22.60;99.90
19552;DHT22;9921;47.186;9.778;2023-07-20T08:08:32;22.60;99.90
19552;DHT22;9921;47.186;9.778;2023-07-20T08:10:59;22.70;99.90
19552;DHT22;9921;47.186;9.778;2023-07-20T08:13:26;22.70;99.90
19552;DHT22;9921;47.186;9.778;2023-07-20T08:15:53;22.70;99.90
19552;DHT22;9921;47.186;9.778;2023-07-20T08:18:20;22.70;99.90
19552;DHT22;9921;47.186;9.778;2023-07-20T08:20:47;22.70;99.90
19552;DHT22;9921;47.186;9.778;2023-07-20T08:23:15;22.80;99.90
19552;DHT22;9921;47.186;9.778;2023-07-20T08:25:43;22.80;99.90
19552;DHT22;9921;47.186;9.778;2023-07-20T08:28:14;22.90;99.90
19552;DHT22;9921;47.186;9.778;2023-07-20T08:30:42;22.90;99.90
19552;DHT22;9921;47.186;9.778;2023-07-20T08:33:09;22.90;99.90
19552;DHT22;9921;47.186;9.778;2023-07-20T08:35:37;23.00;99.90
19552;DHT22;9921;47.186;9.778;2023-07-20T08:38:04;23.10;99.90
19552;DHT22;9921;47.186;9.778;2023-07-20T08:40:31;23.20;99.90
19552;DHT22;9921;47.186;9.778;2023-07-20T08:43:00;23.30;99.90
19552;DHT22;9921;47.186;9.778;2023-07-20T08:45:28;23.30;99.90
19552;DHT22;9921;47.186;9.778;2023-07-20T08:47:57;23.40;99.90
19552;DHT22;9921;47.186;9.778;2023-07-20T08:50:25;23.40;99.90
19552;DHT22;9921;47.186;9.778;2023-07-20T08:52:52;23.50;99.90
19552;DHT22;9921;47.186;9.778;2023-07-20T08:55:21;23.50;99.90
19552;DHT22;9921;47.186;9.778;2023-07-20T08:57:50;23.60;99.90
19552;DHT22;9921;47.186;9.778;2023-07-20T09:00:20;23.60;99.90
19552;DHT22;9921;47.186;9.778;2023-07-20T09:02:49;23.60;99.90
19552;DHT22;9921;47.186;9.778;2023-07-20T09:05:17;23.60;99.90
19552;DHT22;9921;47.186;9.778;2023-07-20T09:07:44;23.70;99.90
19552;DHT22;9921;47.186;9.778;2023-07-20T09:10:12;23.80;99.90
19552;DHT22;9921;47.186;9.778;2023-07-20T09:12:40;23.90;99.90
19552;DHT22;9921;47.186;9.778;2023-07-20T09:15:09;24.00;99.90
19552;DHT22;9921;47.186;9.778;2023-07-20T09:17:38;24.10;99.90
19552;DHT22;9921;47.186;9.778;2023-07-20T09:20:06;24.20;99.90
19552;DHT22;9921;47.186;9.778;2023-07-20T09:22:35;24.40;99.90
19552;DHT22;9921;47.186;9.778;2023-07-20T09:25:06;24.40;99.90
19552;DHT22;9921;47.186;9.778;2023-07-20T09:27:38;24.40;99.90
19552;DHT22;9921;47.186;9.778;2023-07-20T09:30:06;24.50;99.90
19552;DHT22;9921;47.186;9.778;2023-07-20T09:32:44;24.60;99.90
19552;DHT22;9921;47.186;9.778;2023-07-20T09:35:15;24.60;99.90
19552;DHT22;9921;47.186;9.778;2023-07-20T09:37:54;24.70;99.90
19552;DHT22;9921;47.186;9.778;2023-07-20T09:40:22;24.80;99.90
19552;DHT22;9921;47.186;9.778;2023-07-20T09:42:52;24.90;99.90
19552;DHT22;9921;47.186;9.778;2023-07-20T09:45:29;25.00;99.90
19552;DHT22;9921;47.186;9.778;2023-07-20T09:48:03;25.20;99.90
19552;DHT22;9921;47.186;9.778;2023-07-20T09:50:30;25.30;99.90
19552;DHT22;9921;47.186;9.778;2023-07-20T09:52:57;25.40;99.90
19552;DHT22;9921;47.186;9.778;2023-07-20T09:55:26;25.50;99.90
19552;DHT22;9921;47.186;9.778;2023-07-20T09:57:53;25.60;99.90
19552;DHT22;9921;47.186;9.778;2023-07-20T10:00:21;25.60;99.90
19552;DHT22;9921;47.186;9.778;2023-07-20T10:02:49;25.70;99.90
19552;DHT22;9921;47.186;9.778;2023-07-20T10:05:19;25.80;99.90
19552;DHT22;9921;47.186;9.778;2023-07-20T10:07:48;25.90;99.90
19552;DHT22;9921;47.186;9.778;2023-07-20T10:10:17;25.90;99.90
19552;DHT22;9921;47.186;9.778;2023-07-20T10:12:46;26.00;99.90
19552;DHT22;9921;47.186;9.778;2023-07-20T10:15:18;26.10;99.90
19552;DHT22;9921;47.186;9.778;2023-07-20T10:17:58;26.20;99.90
19552;DHT22;9921;47.186;9.778;2023-07-20T10:20:27;26.20;99.90
19552;DHT22;9921;47.186;9.778;2023-07-20T10:22:55;26.20;99.90
19552;DHT22;9921;47.186;9.778;2023-07-20T10:25:23;26.20;99.90
19552;DHT22;9921;47.186;9.778;2023-07-20T10:27:51;26.30;99.90
19552;DHT22;9921;47.186;9.778;2023-07-20T10:30:18;26.50;99.90
19552;DHT22;9921;47.186;9.778;2023-07-20T10:32:46;26.50;99.90
19552;DHT22;9921;47.186;9.778;2023-07-20T10:35:14;26.40;99.90
19552;DHT22;9921;47.186;9.778;2023-07-20T10:38:00;26.50;99.90
19552;DHT22;9921;47.186;9.778;2023-07-20T10:40:32;26.40;99.90
19552;DHT22;9921;47.186;9.778;2023-07-20T10:43:00;26.40;99.90
19552;DHT22;9921;47.186;9.778;2023-07-20T10:45:41;26.50;99.90
19552;DHT22;9921;47.186;9.778;2023-07-20T10:48:14;26.50;99.90
19552;DHT22;9921;47.186;9.778;2023-07-20T10:50:41;26.60;99.90
19552;DHT22;9921;47.186;9.778;2023-07-20T10:53:14;26.70;99.90
19552;DHT22;9921;47.186;9.778;2023-07-20T10:55:42;26.70;99.90
19552;DHT22;9921;47.186;9.778;2023-07-20T10:58:11;26.70;99.90
19552;DHT22;9921;47.186;9.778;2023-07-20T11:00:57;26.70;99.90
19552;DHT22;9921;47.186;9.778;2023-07-20T11:03:34;26.70;99.90
19552;DHT22;9921;47.186;9.778;2023-07-20T11:06:31;26.70;99.90
19552;DHT22;9921;47.186;9.778;2023-07-20T11:09:08;26.70;99.90
19552;DHT22;9921;47.186;9.778;2023-07-20T11:11:37;26.70;99.90
19552;DHT22;9921;47.186;9.778;2023-07-20T11:14:06;26.70;99.90
19552;DHT22;9921;47.186;9.778;2023-07-20T11:16:35;26.70;99.90
19552;DHT22;9921;47.186;9.778;2023-07-20T11:19:02;26.70;99.90
19552;DHT22;9921;47.186;9.778;2023-07-20T11:21:30;26.70;99.90
19552;DHT22;9921;47.186;9.778;2023-07-20T11:24:03;26.80;99.90
19552;DHT22;9921;47.186;9.778;2023-07-20T11:26:39;26.90;99.90
19552;DHT22;9921;47.186;9.778;2023-07-20T11:29:06;27.00;99.90
19552;DHT22;9921;47.186;9.778;2023-07-20T11:31:35;27.20;99.90
19552;DHT22;9921;47.186;9.778;2023-07-20T11:34:02;27.30;99.90
19552;DHT22;9921;47.186;9.778;2023-07-20T11:36:29;27.30;99.90
19552;DHT22;9921;47.186;9.778;2023-07-20T11:38:57;27.50;99.90
19552;DHT22;9921;47.186;9.778;2023-07-20T11:41:25;27.60;99.90
19552;DHT22;9921;47.186;9.778;2023-07-20T11:43:54;27.70;99.90
19552;DHT22;9921;47.186;9.778;2023-07-20T11:46:21;27.70;99.90
19552;DHT22;9921;47.186;9.778;2023-07-20T11:48:47;27.80;99.90
19552;DHT22;9921;47.186;9.778;2023-07-20T11:51:15;27.90;99.90
19552;DHT22;9921;47.186;9.778;2023-07-20T11:53:43;27.80;99.90
19552;DHT22;9921;47.186;9.778;2023-07-20T11:56:10;27.70;99.90
19552;DHT22;9921;47.186;9.778;2023-07-20T11:58:42;27.70;99.90
19552;DHT22;9921;47.186;9.778;2023-07-20T12:01:11;27.70;99.90
19552;DHT22;9921;47.186;9.778;2023-07-20T12:03:38;27.80;99.90
19552;DHT22;9921;47.186;9.778;2023-07-20T12:06:08;27.80;99.90
19552;DHT22;9921;47.186;9.778;2023-07-20T12:08:38;28.00;99.90
19552;DHT22;9921;47.186;9.778;2023-07-20T12:11:06;28.00;99.90
19552;DHT22;9921;47.186;9.778;2023-07-20T12:13:37;28.10;99.90
19552;DHT22;9921;47.186;9.778;2023-07-20T12:16:13;28.20;99.90
19552;DHT22;9921;47.186;9.778;2023-07-20T12:18:40;28.30;99.90
19552;DHT22;9921;47.186;9.778;2023-07-20T12:21:07;28.30;99.90
19552;DHT22;9921;47.186;9.778;2023-07-20T12:23:42;28.40;99.90
19552;DHT22;9921;47.186;9.778;2023-07-20T12:26:09;28.40;99.90
19552;DHT22;9921;47.186;9.778;2023-07-20T12:28:40;28.40;99.90
19552;DHT22;9921;47.186;9.778;2023-07-20T12:31:12;28.40;99.90
19552;DHT22;9921;47.186;9.778;2023-07-20T12:33:39;28.30;99.90
19552;DHT22;9921;47.186;9.778;2023-07-20T12:36:06;28.30;99.90
19552;DHT22;9921;47.186;9.778;2023-07-20T12:38:33;28.30;99.90
19552;DHT22;9921;47.186;9.778;2023-07-20T12:41:00;28.40;99.90
19552;DHT22;9921;47.186;9.778;2023-07-20T12:43:28;28.50;99.90
19552;DHT22;9921;47.186;9.778;2023-07-20T12:45:55;28.50;99.90
19552;DHT22;9921;47.186;9.778;2023-07-20T12:48:24;28.60;99.90
19552;DHT22;9921;47.186;9.778;2023-07-20T12:50:50;28.70;99.90
19552;DHT22;9921;47.186;9.778;2023-07-20T12:53:17;28.60;99.90
19552;DHT22;9921;47.186;9.778;2023-07-20T12:55:44;28.70;99.90
19552;DHT22;9921;47.186;9.778;2023-07-20T12:58:11;28.60;99.90
19552;DHT22;9921;47.186;9.778;2023-07-20T13:00:39;28.60;99.90
19552;DHT22;9921;47.186;9.778;2023-07-20T13:03:06;28.40;99.90
19552;DHT22;9921;47.186;9.778;2023-07-20T13:05:35;28.30;99.90
19552;DHT22;9921;47.186;9.778;2023-07-20T13:08:02;28.20;99.90
19552;DHT22;9921;47.186;9.778;2023-07-20T13:10:31;28.10;99.90
19552;DHT22;9921;47.186;9.778;2023-07-20T13:12:58;28.10;99.90
19552;DHT22;9921;47.186;9.778;2023-07-20T13:15:30;28.00;99.90
19552;DHT22;9921;47.186;9.778;2023-07-20T13:17:58;28.00;99.90
19552;DHT22;9921;47.186;9.778;2023-07-20T13:20:26;28.10;99.90
19552;DHT22;9921;47.186;9.778;2023-07-20T13:22:55;28.10;99.90
19552;DHT22;9921;47.186;9.778;2023-07-20T13:25:22;28.00;99.90
19552;DHT22;9921;47.186;9.778;2023-07-20T13:27:48;27.90;99.90
19552;DHT22;9921;47.186;9.778;2023-07-20T13:30:15;27.90;99.90
19552;DHT22;9921;47.186;9.778;2023-07-20T13:32:43;27.90;99.90
19552;DHT22;9921;47.186;9.778;2023-07-20T13:35:12;28.00;99.90
19552;DHT22;9921;47.186;9.778;2023-07-20T13:37:39;28.10;99.90
19552;DHT22;9921;47.186;9.778;2023-07-20T13:40:08;28.00;99.90
19552;DHT22;9921;47.186;9.778;2023-07-20T13:42:37;28.00;99.90
19552;DHT22;9921;47.186;9.778;2023-07-20T13:45:06;28.00;99.90
19552;DHT22;9921;47.186;9.778;2023-07-20T13:47:34;27.90;99.90
19552;DHT22;9921;47.186;9.778;2023-07-20T13:50:00;27.90;99.90
19552;DHT22;9921;47.186;9.778;2023-07-20T13:52:27;27.90;99.90
19552;DHT22;9921;47.186;9.778;2023-07-20T13:54:54;27.90;99.90
19552;DHT22;9921;47.186;9.778;2023-07-20T13:57:22;28.00;99.90
19552;DHT22;9921;47.186;9.778;2023-07-20T13:59:49;28.10;99.90
19552;DHT22;9921;47.186;9.778;2023-07-20T14:02:16;28.10;99.90
19552;DHT22;9921;47.186;9.778;2023-07-20T14:04:43;28.20;99.90
19552;DHT22;9921;47.186;9.778;2023-07-20T14:07:10;28.20;99.90
19552;DHT22;9921;47.186;9.778;2023-07-20T14:09:38;28.00;99.90
19552;DHT22;9921;47.186;9.778;2023-07-20T14:12:06;28.00;99.90
19552;DHT22;9921;47.186;9.778;2023-07-20T14:14:35;27.90;99.90
19552;DHT22;9921;47.186;9.778;2023-07-20T14:17:02;28.00;99.90
19552;DHT22;9921;47.186;9.778;2023-07-20T14:19:29;28.00;99.90
19552;DHT22;9921;47.186;9.778;2023-07-20T14:21:55;28.00;99.90
19552;DHT22;9921;47.186;9.778;2023-07-20T14:24:25;27.90;99.90
19552;DHT22;9921;47.186;9.778;2023-07-20T14:26:52;27.70;99.90
19552;DHT22;9921;47.186;9.778;2023-07-20T14:29:20;27.60;99.90
19552;DHT22;9921;47.186;9.778;2023-07-20T14:31:48;27.50;99.90
19552;DHT22;9921;47.186;9.778;2023-07-20T14:34:16;27.40;99.90
19552;DHT22;9921;47.186;9.778;2023-07-20T14:36:44;27.30;99.90
19552;DHT22;9921;47.186;9.778;2023-07-20T14:39:11;27.30;99.90
19552;DHT22;9921;47.186;9.778;2023-07-20T14:41:38;27.40;99.90
19552;DHT22;9921;47.186;9.778;2023-07-20T14:44:04;27.40;99.90
19552;DHT22;9921;47.186;9.778;2023-07-20T14:46:31;27.50;99.90
19552;DHT22;9921;47.186;9.778;2023-07-20T14:49:00;27.50;99.90
19552;DHT22;9921;47.186;9.778;2023-07-20T14:51:28;27.50;99.90
19552;DHT22;9921;47.186;9.778;2023-07-20T14:53:58;27.50;99.90
19552;DHT22;9921;47.186;9.778;2023-07-20T14:56:25;27.50;99.90
19552;DHT22;9921;47.186;9.778;2023-07-20T14:58:53;27.40;99.90
19552;DHT22;9921;47.186;9.778;2023-07-20T15:01:19;27.30;99.90
19552;DHT22;9921;47.186;9.778;2023-07-20T15:03:46;27.30;99.90
19552;DHT22;9921;47.186;9.778;2023-07-20T15:06:17;27.30;99.90
19552;DHT22;9921;47.186;9.778;2023-07-20T15:08:43;27.30;99.90
19552;DHT22;9921;47.186;9.778;2023-07-20T15:11:10;27.30;99.90
19552;DHT22;9921;47.186;9.778;2023-07-20T15:13:37;27.30;99.90
19552;DHT22;9921;47.186;9.778;2023-07-20T15:16:04;27.30;99.90
19552;DHT22;9921;47.186;9.778;2023-07-20T15:18:31;27.20;99.90
19552;DHT22;9921;47.186;9.778;2023-07-20T15:20:58;27.10;99.90
19552;DHT22;9921;47.186;9.778;2023-07-20T15:23:26;27.10;99.90
19552;DHT22;9921;47.186;9.778;2023-07-20T15:25:53;27.10;99.90
19552;DHT22;9921;47.186;9.778;2023-07-20T15:28:20;27.10;99.90
19552;DHT22;9921;47.186;9.778;2023-07-20T15:30:47;27.10;99.90
19552;DHT22;9921;47.186;9.778;2023-07-20T15:33:13;27.10;99.90
19552;DHT22;9921;47.186;9.778;2023-07-20T15:35:41;27.10;99.90
19552;DHT22;9921;47.186;9.778;2023-07-20T15:38:08;27.00;99.90
19552;DHT22;9921;47.186;9.778;2023-07-20T15:40:36;27.00;99.90
19552;DHT22;9921;47.186;9.778;2023-07-20T15:43:03;27.00;99.90
19552;DHT22;9921;47.186;9.778;2023-07-20T15:45:30;26.90;99.90
19552;DHT22;9921;47.186;9.778;2023-07-20T15:47:57;26.90;99.90
19552;DHT22;9921;47.186;9.778;2023-07-20T15:50:24;26.90;99.90
19552;DHT22;9921;47.186;9.778;2023-07-20T15:52:51;26.90;99.90